createdAt,value
2019-02-17T14:52:11.698Z,16.45
2019-02-17T14:53:12.853Z,16.23
2019-02-17T14:54:14.261Z,15.65
2019-02-17T14:55:15.369Z,16.40
2019-02-17T14:56:16.725Z,16.65
2019-02-17T14:57:17.845Z,17.00
2019-02-17T14:58:18.965Z,17.55
2019-02-17T14:59:20.211Z,17.32
2019-02-17T15:00:21.562Z,15.80
2019-02-17T15:01:22.700Z,16.20
2019-02-17T15:02:23.818Z,15.75
2019-02-17T15:03:24.988Z,14.75
2019-02-17T15:04:26.355Z,16.52
2019-02-17T15:05:28.119Z,17.07
2019-02-17T15:06:29.224Z,17.10
2019-02-17T15:07:30.336Z,19.65
2019-02-17T15:08:31.817Z,17.10
2019-02-17T15:09:33.344Z,16.50
2019-02-17T15:10:34.505Z,15.63
2019-02-17T15:11:36.024Z,15.72
2019-02-17T15:12:37.136Z,17.57
2019-02-17T15:13:38.245Z,17.77
2019-02-17T15:14:39.381Z,14.98
2019-02-17T15:15:40.488Z,17.45
2019-02-17T15:16:41.626Z,18.42
2019-02-17T15:17:42.743Z,19.07
2019-02-17T15:18:43.928Z,15.98
2019-02-17T15:19:45.161Z,16.82
2019-02-17T15:20:46.271Z,18.23
2019-02-17T15:21:47.394Z,18.23
2019-02-17T15:22:48.757Z,17.70
2019-02-17T15:23:49.891Z,17.57
2019-02-17T15:24:51.009Z,19.17
2019-02-17T15:25:52.148Z,17.27
2019-02-17T15:26:53.257Z,17.82
2019-02-17T15:27:54.367Z,20.00
2019-02-17T15:28:55.508Z,18.67
2019-02-17T15:29:56.623Z,16.90
2019-02-17T15:30:57.725Z,19.27
2019-02-17T15:31:58.843Z,17.98
2019-02-17T15:33:03.945Z,16.95
2019-02-17T15:34:02.999Z,17.62
2019-02-17T15:35:04.913Z,17.60
2019-02-17T15:36:06.029Z,18.60
2019-02-17T15:37:07.135Z,16.67
2019-02-17T15:38:08.269Z,18.07
2019-02-17T15:39:09.405Z,17.37
2019-02-17T15:40:11.911Z,16.20
2019-02-17T15:41:13.360Z,16.90
2019-02-17T15:42:14.535Z,18.50
2019-02-17T15:43:15.748Z,18.62
2019-02-17T15:44:16.888Z,17.17
2019-02-17T15:45:18.005Z,18.25
2019-02-17T15:46:19.166Z,16.32
2019-02-17T15:47:20.325Z,16.10
2019-02-17T15:48:22.030Z,16.80
2019-02-17T15:49:23.545Z,15.60
2019-02-17T15:50:25.003Z,17.95
2019-02-17T15:51:26.111Z,17.70
2019-02-17T15:52:27.239Z,18.82
2019-02-17T15:53:28.354Z,16.17
2019-02-17T15:54:29.473Z,17.12
2019-02-17T15:55:30.823Z,17.05
2019-02-17T15:56:34.283Z,18.10
2019-02-17T15:57:35.444Z,18.23
2019-02-17T15:58:36.558Z,14.75
2019-02-17T15:59:42.432Z,18.02
2019-02-17T16:00:51.433Z,16.80
2019-02-17T16:02:01.305Z,15.30
2019-02-17T16:03:02.818Z,16.93
2019-02-17T16:04:04.029Z,18.70
2019-02-17T16:05:06.461Z,17.48
2019-02-17T16:06:07.881Z,14.68
2019-02-17T16:07:09.040Z,18.42
2019-02-17T16:08:10.151Z,16.80
2019-02-17T16:09:16.799Z,16.20
2019-02-17T16:10:20.110Z,17.85
2019-02-17T16:11:21.217Z,17.50
2019-02-17T16:12:28.665Z,18.73
2019-02-17T16:13:30.045Z,16.90
2019-02-17T16:14:31.174Z,18.32
2019-02-17T16:15:32.287Z,18.70
2019-02-17T16:16:35.595Z,15.10
2019-02-17T16:17:36.940Z,18.73
2019-02-17T16:18:48.013Z,16.10
2019-02-17T16:19:49.148Z,16.45
2019-02-17T16:20:50.260Z,18.35
2019-02-17T16:21:51.377Z,18.07
2019-02-17T16:22:52.488Z,16.15
2019-02-17T16:23:53.840Z,14.00
2019-02-17T16:24:54.974Z,18.05
2019-02-17T16:25:56.097Z,17.37
2019-02-17T16:26:57.217Z,13.70
2019-02-17T16:27:58.333Z,14.03
2019-02-17T16:28:59.701Z,14.83
2019-02-17T16:30:01.177Z,15.88
2019-02-17T16:31:02.298Z,13.70
2019-02-17T16:32:03.414Z,15.00
2019-02-17T16:33:04.548Z,14.07
2019-02-17T16:34:06.014Z,14.00
2019-02-17T16:35:07.141Z,13.68
2019-02-17T16:36:08.600Z,14.73
2019-02-17T16:37:09.718Z,15.15
2019-02-17T16:38:10.836Z,13.50
2019-02-17T16:39:11.948Z,15.93
2019-02-17T16:40:14.409Z,12.93
2019-02-17T16:41:15.528Z,15.40
2019-02-17T16:42:16.646Z,13.85
2019-02-17T16:43:18.058Z,17.15
2019-02-17T16:44:19.185Z,12.30
2019-02-17T16:45:20.326Z,12.47
2019-02-17T16:46:21.440Z,14.90
2019-02-17T16:47:22.547Z,13.93
2019-02-17T16:48:23.664Z,13.62
2019-02-17T16:49:25.070Z,13.90
2019-02-17T16:50:28.940Z,14.33
2019-02-17T16:51:30.061Z,16.75
2019-02-17T16:52:31.185Z,13.68
2019-02-17T16:53:32.565Z,16.97
2019-02-17T16:54:33.684Z,14.20
2019-02-17T16:55:34.821Z,14.47
2019-02-17T16:56:35.941Z,14.20
2019-02-17T16:57:37.149Z,14.43
2019-02-17T16:58:38.301Z,14.83
2019-02-17T16:59:39.411Z,14.00
2019-02-17T17:00:40.785Z,15.88
2019-02-17T17:01:41.898Z,13.35
2019-02-17T17:02:43.023Z,15.78
2019-02-17T17:03:44.417Z,14.05
2019-02-17T17:04:48.543Z,14.38
2019-02-17T17:05:48.988Z,16.57
2019-02-17T17:06:50.106Z,14.45
2019-02-17T17:07:51.216Z,16.25
2019-02-17T17:08:52.344Z,18.67
2019-02-17T17:09:53.592Z,17.02
2019-02-17T17:10:54.725Z,17.67
2019-02-17T17:11:55.843Z,15.85
2019-02-17T17:12:56.957Z,15.15
2019-02-17T17:13:58.080Z,19.02
2019-02-17T17:14:59.201Z,17.50
2019-02-17T17:16:00.321Z,16.07
2019-02-17T17:17:01.427Z,18.80
2019-02-17T17:18:02.644Z,16.37
2019-02-17T17:19:03.791Z,20.82
2019-02-17T17:20:16.423Z,17.98
2019-02-17T17:21:17.878Z,20.88
2019-02-17T17:22:19.085Z,19.90
2019-02-17T17:23:20.200Z,20.88
2019-02-17T17:24:21.649Z,21.02
2019-02-17T17:25:25.117Z,18.12
2019-02-17T17:26:26.471Z,21.02
2019-02-17T17:27:27.585Z,16.23
2019-02-17T17:28:28.700Z,16.65
2019-02-17T17:29:29.837Z,15.70
2019-02-17T17:30:30.952Z,17.30
2019-02-17T17:31:32.408Z,16.80
2019-02-17T17:32:33.586Z,17.32
2019-02-17T17:33:34.805Z,18.07
2019-02-17T17:34:35.917Z,17.75
2019-02-17T17:35:37.353Z,19.20
2019-02-17T17:36:38.488Z,17.65
2019-02-17T17:37:39.608Z,19.50
2019-02-17T17:38:40.734Z,21.97
2019-02-17T17:39:42.189Z,24.57
2019-02-17T17:40:43.313Z,19.25
2019-02-17T17:41:44.786Z,22.52
2019-02-17T17:42:45.896Z,20.17
2019-02-17T17:43:47.017Z,22.73
2019-02-17T17:44:48.137Z,22.22
2019-02-17T17:45:49.300Z,21.48
2019-02-17T17:46:50.734Z,20.43
2019-02-17T17:47:51.940Z,20.85
2019-02-17T17:48:53.052Z,21.27
2019-02-17T17:49:54.159Z,16.40
2019-02-17T17:50:55.293Z,17.32
2019-02-17T17:51:56.557Z,18.23
2019-02-17T17:52:57.740Z,16.30
2019-02-17T17:53:58.882Z,19.15
2019-02-17T17:54:59.996Z,18.12
2019-02-17T17:56:01.126Z,20.08
2019-02-17T17:57:02.237Z,18.45
2019-02-17T17:58:03.396Z,20.05
2019-02-17T17:59:04.846Z,18.32
2019-02-17T18:00:12.081Z,19.57
2019-02-17T18:01:13.256Z,19.20
2019-02-17T18:02:14.506Z,21.70
2019-02-17T18:03:15.592Z,18.45
2019-02-17T18:04:16.704Z,19.98
2019-02-17T18:05:17.811Z,21.55
2019-02-17T18:06:18.929Z,19.15
2019-02-17T18:07:20.035Z,20.92
2019-02-17T18:08:21.163Z,21.50
2019-02-17T18:09:22.277Z,19.75
2019-02-17T18:10:23.413Z,22.00
2019-02-17T18:11:24.555Z,22.07
2019-02-17T18:12:25.668Z,19.20
2019-02-17T18:13:26.822Z,21.65
2019-02-17T18:14:28.000Z,20.05
2019-02-17T18:15:29.178Z,19.60
2019-02-17T18:16:30.298Z,22.15
2019-02-17T18:17:31.410Z,19.35
2019-02-17T18:18:32.528Z,21.70
2019-02-17T18:19:33.634Z,21.00
2019-02-17T18:20:34.767Z,19.67
2019-02-17T18:21:35.889Z,23.50
2019-02-17T18:22:37.009Z,20.97
2019-02-17T18:23:38.130Z,21.65
2019-02-17T18:24:39.558Z,22.02
2019-02-17T18:25:40.721Z,24.98
2019-02-17T18:26:41.831Z,24.55
2019-02-17T18:27:42.952Z,22.85
2019-02-17T18:28:44.083Z,25.57
2019-02-17T18:29:45.184Z,21.87
2019-02-17T18:30:46.308Z,24.25
2019-02-17T18:31:47.420Z,22.95
2019-02-17T18:32:48.780Z,18.27
2019-02-17T18:33:50.225Z,22.10
2019-02-17T18:34:51.341Z,20.82
2019-02-17T18:35:52.445Z,20.30
2019-02-17T18:36:53.739Z,22.10
2019-02-17T18:37:54.844Z,23.15
2019-02-17T18:38:56.007Z,22.45
2019-02-17T18:39:57.175Z,23.70
2019-02-17T18:40:58.280Z,22.13
2019-02-17T18:41:59.404Z,22.22
2019-02-17T18:43:02.790Z,24.23
2019-02-17T18:44:03.995Z,21.50
2019-02-17T18:45:08.417Z,21.55
2019-02-17T18:46:09.534Z,22.82
2019-02-17T18:47:10.648Z,21.25
2019-02-17T18:48:12.017Z,20.92
2019-02-17T18:49:13.128Z,22.02
2019-02-17T18:50:15.286Z,21.60
2019-02-17T18:51:16.755Z,20.62
2019-02-17T18:52:17.878Z,22.62
2019-02-17T18:53:19.056Z,19.57
2019-02-17T18:54:20.160Z,21.12
2019-02-17T18:55:21.268Z,19.45
2019-02-17T18:56:22.827Z,19.95
2019-02-17T18:57:23.952Z,20.77
2019-02-17T18:58:25.071Z,19.98
2019-02-17T18:59:26.190Z,19.10
2019-02-17T19:00:27.332Z,19.23
2019-02-17T19:01:28.732Z,15.90
2019-02-17T19:02:29.852Z,18.95
2019-02-17T19:03:30.969Z,19.70
2019-02-17T19:04:32.071Z,18.85
2019-02-17T19:05:33.189Z,18.90
2019-02-17T19:06:34.565Z,20.68
2019-02-17T19:07:36.005Z,19.10
2019-02-17T19:08:37.123Z,19.00
2019-02-17T19:09:38.388Z,19.62
2019-02-17T19:10:39.560Z,19.48
2019-02-17T19:11:40.947Z,18.32
2019-02-17T19:12:42.071Z,18.27
2019-02-17T19:13:43.177Z,19.32
2019-02-17T19:14:44.291Z,18.17
2019-02-17T19:15:45.401Z,18.30
2019-02-17T19:16:46.766Z,20.35
2019-02-17T19:17:48.265Z,18.60
2019-02-17T19:18:49.456Z,19.02
2019-02-17T19:19:50.563Z,19.92
2019-02-17T19:20:51.672Z,19.42
2019-02-17T19:21:52.909Z,19.82
2019-02-17T19:22:54.027Z,19.07
2019-02-17T19:23:55.468Z,19.40
2019-02-17T19:24:56.906Z,20.48
2019-02-17T19:25:58.024Z,19.90
2019-02-17T19:26:59.153Z,20.25
2019-02-17T19:28:00.253Z,18.60
2019-02-17T19:29:01.408Z,19.90
2019-02-17T19:30:05.028Z,19.70
2019-02-17T19:31:06.141Z,20.12
2019-02-17T19:32:07.270Z,18.45
2019-02-17T19:33:08.624Z,19.05
2019-02-17T19:34:09.739Z,18.50
2019-02-17T19:35:12.768Z,19.52
2019-02-17T19:36:14.183Z,18.15
2019-02-17T19:37:15.291Z,17.27
2019-02-17T19:38:16.405Z,18.50
2019-02-17T19:39:17.504Z,17.98
2019-02-17T19:40:18.717Z,18.23
2019-02-17T19:41:19.864Z,16.75
2019-02-17T19:42:21.110Z,17.75
2019-02-17T19:43:22.526Z,16.55
2019-02-17T19:44:23.641Z,16.40
2019-02-17T19:45:24.749Z,17.70
2019-02-17T19:46:26.436Z,16.42
2019-02-17T19:47:27.560Z,18.30
2019-02-17T19:48:28.673Z,19.05
2019-02-17T19:49:29.777Z,19.15
2019-02-17T19:50:30.876Z,20.17
2019-02-17T19:51:31.992Z,18.52
2019-02-17T19:52:33.180Z,20.20
2019-02-17T19:53:34.348Z,19.90
2019-02-17T19:54:35.455Z,20.82
2019-02-17T19:55:36.667Z,20.62
2019-02-17T19:56:39.748Z,21.73
2019-02-17T19:57:40.855Z,21.55
2019-02-17T19:58:41.964Z,22.05
2019-02-17T19:59:43.067Z,22.67
2019-02-17T20:00:44.445Z,22.10
2019-02-17T20:01:45.556Z,24.02
2019-02-17T20:02:48.604Z,22.32
2019-02-17T20:03:54.889Z,24.10
2019-02-17T20:05:17.885Z,20.57
2019-02-17T20:06:20.696Z,17.77
2019-02-17T20:07:21.833Z,18.55
2019-02-17T20:08:22.996Z,18.30
2019-02-17T20:09:24.266Z,17.95
2019-02-17T20:10:25.375Z,19.10
2019-02-17T20:11:26.489Z,16.35
2019-02-17T20:12:27.946Z,17.35
2019-02-17T20:13:29.047Z,16.02
2019-02-17T20:14:31.743Z,17.20
2019-02-17T20:15:34.094Z,15.88
2019-02-17T20:16:35.444Z,15.60
2019-02-17T20:17:36.579Z,15.75
2019-02-17T20:18:37.742Z,18.15
2019-02-17T20:19:38.928Z,16.02
2019-02-17T20:20:40.074Z,17.35
2019-02-17T20:21:41.188Z,20.05
2019-02-17T20:22:42.440Z,19.50
2019-02-17T20:23:43.592Z,18.32
2019-02-17T20:24:44.960Z,19.85
2019-02-17T20:25:46.125Z,19.57
2019-02-17T20:26:47.301Z,19.62
2019-02-17T20:27:48.395Z,19.85
2019-02-17T20:28:49.852Z,19.65
2019-02-17T20:29:50.964Z,17.95
2019-02-17T20:30:52.085Z,20.20
2019-02-17T20:31:53.200Z,18.07
2019-02-17T20:32:54.323Z,19.57
2019-02-17T20:33:55.433Z,20.25
2019-02-17T20:34:56.548Z,18.20
2019-02-17T20:36:02.712Z,16.52
2019-02-17T20:37:00.672Z,19.75
2019-02-17T20:38:01.793Z,22.80
2019-02-17T20:39:03.840Z,19.55
2019-02-17T20:40:11.653Z,20.12
2019-02-17T20:41:12.782Z,23.18
2019-02-17T20:42:13.868Z,22.65
2019-02-17T20:43:16.725Z,20.90
2019-02-17T20:44:17.924Z,23.40
2019-02-17T20:45:19.294Z,20.30
2019-02-17T20:46:20.949Z,23.38
2019-02-17T20:47:22.307Z,25.37
2019-02-17T20:48:23.437Z,21.35
2019-02-17T20:49:24.544Z,24.67
2019-02-17T20:50:25.673Z,21.00
2019-02-17T20:51:26.772Z,24.85
2019-02-17T20:52:28.138Z,20.82
2019-02-17T20:53:29.498Z,23.05
2019-02-17T20:54:30.609Z,23.60
2019-02-17T20:55:31.711Z,22.20
2019-02-17T20:56:32.818Z,22.87
2019-02-17T20:57:34.014Z,25.60
2019-02-17T20:58:35.388Z,19.87
2019-02-17T20:59:36.754Z,21.23
2019-02-17T21:00:37.857Z,21.87
2019-02-17T21:01:38.983Z,21.70
2019-02-17T21:02:40.087Z,22.27
2019-02-17T21:03:41.213Z,22.40
2019-02-17T21:04:42.315Z,18.10
2019-02-17T21:05:43.907Z,24.10
2019-02-17T21:06:45.023Z,27.02
2019-02-17T21:07:46.172Z,27.00
2019-02-17T21:08:47.548Z,25.48
2019-02-17T21:09:48.661Z,25.37
2019-02-17T21:10:49.772Z,26.87
2019-02-17T21:11:50.881Z,26.07
2019-02-17T21:12:52.128Z,22.55
2019-02-17T21:13:53.236Z,27.22
2019-02-17T21:14:54.356Z,24.18
2019-02-17T21:15:55.472Z,23.83
2019-02-17T21:16:56.928Z,22.37
2019-02-17T21:17:58.096Z,21.10
2019-02-17T21:18:59.217Z,18.17
2019-02-17T21:20:00.635Z,21.30
2019-02-17T21:21:01.745Z,19.07
2019-02-17T21:22:02.857Z,18.00
2019-02-17T21:23:03.982Z,19.65
2019-02-17T21:24:05.338Z,22.17
2019-02-17T21:25:09.453Z,19.90
2019-02-17T21:26:10.817Z,19.42
2019-02-17T21:27:11.924Z,22.75
2019-02-17T21:28:13.047Z,25.08
2019-02-17T21:29:14.170Z,26.17
2019-02-17T21:30:16.980Z,26.87
2019-02-17T21:31:18.100Z,25.43
2019-02-17T21:32:19.460Z,24.00
2019-02-17T21:33:20.576Z,24.02
2019-02-17T21:34:21.727Z,22.45
2019-02-17T21:35:22.838Z,19.50
2019-02-17T21:36:23.961Z,21.27
2019-02-17T21:37:25.073Z,18.32
2019-02-17T21:38:26.189Z,20.85
2019-02-17T21:39:27.296Z,21.40
2019-02-17T21:40:28.399Z,20.68
2019-02-17T21:41:29.512Z,20.15
2019-02-17T21:42:30.634Z,21.20
2019-02-17T21:43:31.834Z,18.12
2019-02-17T21:44:33.370Z,20.88
2019-02-17T21:45:34.488Z,23.42
2019-02-17T21:46:35.596Z,21.25
2019-02-17T21:47:39.100Z,23.30
2019-02-17T21:48:40.089Z,21.35
2019-02-17T21:49:41.201Z,24.10
2019-02-17T21:50:42.306Z,20.32
2019-02-17T21:51:43.420Z,24.02
2019-02-17T21:52:44.536Z,22.52
2019-02-17T21:53:46.322Z,24.12
2019-02-17T21:54:47.432Z,23.47
2019-02-17T21:55:48.997Z,24.20
2019-02-17T21:56:50.115Z,20.95
2019-02-17T21:57:51.276Z,22.98
2019-02-17T21:58:55.480Z,25.90
2019-02-17T21:59:56.692Z,18.07
2019-02-17T22:00:58.036Z,22.90
2019-02-17T22:01:59.149Z,25.20
2019-02-17T22:03:00.528Z,20.57
2019-02-17T22:04:01.971Z,24.77
2019-02-17T22:05:04.385Z,20.35
2019-02-17T22:06:05.535Z,24.70
2019-02-17T22:07:06.645Z,20.72
2019-02-17T22:08:07.760Z,23.18
2019-02-17T22:09:08.876Z,23.15
2019-02-17T22:10:12.596Z,23.62
2019-02-17T22:11:13.707Z,25.32
2019-02-17T22:12:15.055Z,21.50
2019-02-17T22:13:16.397Z,22.48
2019-02-17T22:14:17.757Z,20.20
2019-02-17T22:15:20.160Z,19.30
2019-02-17T22:16:21.272Z,21.27
2019-02-17T22:17:22.392Z,19.57
2019-02-17T22:18:23.511Z,19.75
2019-02-17T22:19:24.637Z,18.17
2019-02-17T22:20:25.753Z,21.93
2019-02-17T22:21:27.040Z,20.00
2019-02-17T22:22:28.143Z,17.77
2019-02-17T22:23:29.257Z,19.60
2019-02-17T22:24:30.621Z,19.75
2019-02-17T22:25:31.728Z,20.25
2019-02-17T22:26:32.836Z,20.50
2019-02-17T22:27:34.026Z,19.17
2019-02-17T22:28:35.148Z,20.50
2019-02-17T22:29:36.551Z,18.75
2019-02-17T22:30:37.677Z,20.08
2019-02-17T22:31:39.124Z,19.90
2019-02-17T22:32:40.245Z,18.20
2019-02-17T22:33:41.376Z,17.98
2019-02-17T22:34:42.491Z,19.65
2019-02-17T22:35:43.603Z,19.67
2019-02-17T22:36:44.708Z,19.62
2019-02-17T22:37:45.824Z,18.52
2019-02-17T22:38:46.952Z,19.32
2019-02-17T22:39:48.047Z,18.92
2019-02-17T22:40:49.151Z,18.07
2019-02-17T22:41:50.335Z,19.25
2019-02-17T22:42:51.542Z,19.02
2019-02-17T22:43:52.667Z,17.90
2019-02-17T22:44:53.773Z,19.90
2019-02-17T22:45:54.928Z,18.12
2019-02-17T22:46:56.036Z,19.35
2019-02-17T22:47:57.139Z,19.77
2019-02-17T22:48:58.263Z,17.00
2019-02-17T22:49:59.372Z,16.67
2019-02-17T22:51:00.475Z,16.95
2019-02-17T22:52:01.595Z,18.95
2019-02-17T22:53:02.700Z,18.90
2019-02-17T22:54:03.829Z,20.75
2019-02-17T22:55:09.378Z,19.23
2019-02-17T22:56:10.509Z,18.10
2019-02-17T22:57:11.612Z,20.45
2019-02-17T22:58:12.716Z,18.30
2019-02-17T22:59:13.832Z,19.20
2019-02-17T23:00:47.317Z,19.20
2019-02-17T23:01:48.424Z,19.57
2019-02-17T23:02:49.528Z,16.55
2019-02-17T23:03:50.645Z,19.12
2019-02-17T23:04:51.790Z,19.27
2019-02-17T23:05:52.888Z,18.00
2019-02-17T23:06:54.587Z,19.40
2019-02-17T23:07:55.768Z,19.60
2019-02-17T23:08:57.208Z,18.52
2019-02-17T23:09:58.323Z,19.15
2019-02-17T23:10:59.433Z,20.23
2019-02-17T23:12:00.532Z,16.82
2019-02-17T23:13:01.645Z,20.20
2019-02-17T23:14:04.251Z,20.05
2019-02-17T23:15:06.597Z,19.52
2019-02-17T23:16:07.696Z,20.45
2019-02-17T23:17:08.813Z,19.77
2019-02-17T23:18:09.928Z,17.75
2019-02-17T23:19:11.064Z,18.98
2019-02-17T23:20:12.413Z,18.82
2019-02-17T23:21:13.532Z,19.00
2019-02-17T23:22:14.640Z,17.37
2019-02-17T23:23:15.769Z,19.80
2019-02-17T23:24:17.137Z,19.00
2019-02-17T23:25:18.512Z,18.02
2019-02-17T23:26:19.633Z,19.85
2019-02-17T23:27:20.747Z,18.67
2019-02-17T23:28:21.853Z,18.10
2019-02-17T23:29:22.996Z,18.37
2019-02-17T23:30:24.110Z,19.10
2019-02-17T23:31:25.233Z,17.10
2019-02-17T23:32:26.436Z,18.42
2019-02-17T23:33:27.537Z,18.20
2019-02-17T23:34:29.064Z,16.57
2019-02-17T23:35:30.177Z,19.27
2019-02-17T23:36:31.528Z,17.87
2019-02-17T23:37:32.639Z,16.05
2019-02-17T23:38:33.739Z,19.62
2019-02-17T23:39:34.857Z,19.30
2019-02-17T23:40:35.960Z,18.20
2019-02-17T23:41:37.076Z,20.25
2019-02-17T23:42:38.186Z,21.48
2019-02-17T23:43:39.531Z,16.80
2019-02-17T23:44:40.751Z,19.20
2019-02-17T23:45:41.867Z,20.23
2019-02-17T23:46:42.971Z,19.65
2019-02-17T23:47:44.076Z,18.27
2019-02-17T23:48:45.189Z,21.35
2019-02-17T23:49:46.712Z,16.50
2019-02-17T23:50:48.221Z,21.65
2019-02-17T23:51:49.967Z,19.90
2019-02-17T23:52:51.483Z,22.20
2019-02-17T23:53:53.055Z,19.25
2019-02-17T23:54:54.181Z,19.75
2019-02-17T23:55:55.688Z,20.80
2019-02-17T23:56:57.200Z,20.85
2019-02-17T23:57:58.565Z,17.15
2019-02-17T23:58:59.923Z,20.95
